• Join FlightAware (Why Join?)
  • Login
  • US Flag 
05:20PM EST


 

Airport Tracker/Info


-or-


 

Live Flight TrackerFlight Track Log ✈ UPS1366 ✈ 19-Aug-2014 ✈ KABY - KPNS

Flight Track Log - Related Links

Times and Time Zones

All times are in EDT time to prevent confusion due to time zone crossing. See the UPS1366 flight status page for this flight to view local times or setup timezone preferences in your user account.

Time Position Orientation Groundspeed Altitude Reporting Facility
EDT Latitude Longitude Course Direction KTS MPH feet Rate Location/Type
06:20AM 31.5208 -84.2061 145° Southeast 360 414 1,800  Level Jacksonville Center
06:21AM 31.5078 -84.2619 255° West 161 185 3,600 3,000 Climbing Jacksonville Center
06:22AM 31.4922 -84.3375 256° West 159 183 7,800 3,660 Climbing Jacksonville Center
06:23AM 31.4725 -84.4222 255° West 225 259 11,000 2,700 Climbing Jacksonville Center
06:24AM 31.3757 -84.6620 248° West  Level Estimated
06:24AM 31.4461 -84.5289 254° West 299 344 13,300  Level Jacksonville Center
06:25AM 31.4194 -84.6478 255° West 340 391 16,400 2,880 Climbing Jacksonville Center
06:26AM 31.3928 -84.7714 256° West 375 432 19,100 2,640 Climbing Jacksonville Center
06:27AM 31.3614 -84.9047 255° West 403 464 21,700 2,400 Climbing Jacksonville Center
06:28AM 31.3319 -85.0403 256° West 421 484 23,900 1,140 Climbing Jacksonville Center
06:29AM 31.2983 -85.1828 255° West 435 501 24,000  Climbing Jacksonville Center
06:30AM 31.2642 -85.3231 254° West 449 517 23,900 -60 Descending Jacksonville Center
06:31AM 31.2322 -85.4631 255° West 449 517 23,900  Level Jacksonville Center
06:32AM 31.2003 -85.6031 255° West 449 517 24,000  Climbing Jacksonville Center
06:33AM 31.1658 -85.7428 254° West 449 517 24,000 -900 Level Jacksonville Center
06:34AM 31.1311 -85.8850 254° West 449 517 22,200 -2,580 Descending Jacksonville Center
06:35AM 31.0986 -86.0197 254° West 444 511 18,900 -3,180 Descending Jacksonville Center
06:36AM 31.0686 -86.1400 254° West 423 487 15,900 -3,000 Descending Jacksonville Center
06:37AM 31.0428 -86.2508 255° West 409 471 13,000 -2,580 Descending Jacksonville Center
06:38AM 31.0147 -86.3636 254° West 381 438 10,800 -1,140 Descending Jacksonville Center
06:44AM 30.8615 -86.8441 226° Southwest 259 298 5,500 -960 Descending FlightAware ADS-B (KHRT)
06:45AM 30.8194 -86.8958 226° Southwest 256 295 4,500 -1,140 Descending Jacksonville Center
06:45AM 30.8106 -86.9100 234° Southwest 260 299 4,200 -1,020 Descending Jacksonville Center
06:46AM 30.7739 -86.9544 226° Southwest 249 287 3,500 -840 Descending Jacksonville Center
06:46AM 30.7631 -86.9658 222° Southwest 260 299 3,400 -840 Descending Jacksonville Center
06:47AM 30.7239 -87.0125 226° Southwest 245 282 2,700 -900 Descending Jacksonville Center
06:47AM 30.7172 -87.0244 237° Southwest 260 299 2,500 -840 Descending Jacksonville Center
06:48AM 30.6803 -87.0711 227° Southwest 242 278 1,900 -720 Descending Jacksonville Center
06:48AM 30.6694 -87.0825 222° Southwest 260 299 1,800 -240 Descending Jacksonville Center
06:49AM 30.6344 -87.1269 228° Southwest 214 246 1,700 -120 Descending Jacksonville Center
06:49AM 30.6258 -87.1339 215° Southwest 248 285 1,700  Level Jacksonville Center
06:50AM 30.5956 -87.1686 225° Southwest 174 200 1,700 -120 Level Jacksonville Center
06:51AM 30.5650 -87.2083 228° Southwest 161 185 1,600 -420 Descending Jacksonville Center
06:52AM 30.5233 -87.2064 178° South 133 153 900 -660 Descending Jacksonville Center
06:53AM 30.4883 -87.1953 165° South 130 150 300 -600 Descending Jacksonville Center
06:55AM 30.4734 -87.1866 168° South  Level Estimated